createdAt,value
2019-05-29T00:00:03.942Z,1017.24
2019-05-29T00:01:01.788Z,1017.24
2019-05-29T00:02:02.107Z,1017.24
2019-05-29T00:03:02.347Z,1017.22
2019-05-29T00:04:02.646Z,1017.22
2019-05-29T00:05:01.992Z,1017.22
2019-05-29T00:06:02.137Z,1017.22
2019-05-29T00:07:02.520Z,1017.15
2019-05-29T00:08:01.694Z,1017.15
2019-05-29T00:09:01.895Z,1017.15
2019-05-29T00:10:02.521Z,1017.15
2019-05-29T00:11:02.376Z,1017.09
2019-05-29T00:12:02.652Z,1017.09
2019-05-29T00:13:01.751Z,1017.09
2019-05-29T00:14:27.096Z,1017.09
2019-05-29T00:15:02.269Z,1017.07
2019-05-29T00:16:02.546Z,1017.07
2019-05-29T00:17:01.894Z,1017.07
2019-05-29T00:18:02.015Z,1017.09
2019-05-29T00:19:02.191Z,1017.09
2019-05-29T00:20:02.513Z,1017.09
2019-05-29T00:21:01.780Z,1017.09
2019-05-29T00:22:02.392Z,1017.1
2019-05-29T00:23:02.595Z,1017.1
2019-05-29T00:24:01.777Z,1017.1
2019-05-29T00:25:02.025Z,1017.1
2019-05-29T00:26:02.074Z,1017.16
2019-05-29T00:27:02.218Z,1017.16
2019-05-29T00:28:02.534Z,1017.16
2019-05-29T00:29:01.669Z,1017.16
2019-05-29T00:30:01.934Z,1017.11
2019-05-29T00:31:02.155Z,1017.11
2019-05-29T00:32:02.385Z,1017.11
2019-05-29T00:33:01.674Z,1017.11
2019-05-29T00:34:01.889Z,1017.28
2019-05-29T00:35:02.183Z,1017.28
2019-05-29T00:36:02.425Z,1017.28
2019-05-29T00:37:01.642Z,1017.28
2019-05-29T00:38:01.997Z,1017.36
2019-05-29T00:39:02.264Z,1017.36
2019-05-29T00:40:02.134Z,1017.36
2019-05-29T00:41:02.673Z,1017.36
2019-05-29T00:42:01.813Z,1017.3
2019-05-29T00:43:02.156Z,1017.3
2019-05-29T00:44:02.233Z,1017.3
2019-05-29T00:45:02.513Z,1017.3
2019-05-29T00:46:01.790Z,1017.37
2019-05-29T00:47:01.998Z,1017.37
2019-05-29T00:48:02.174Z,1017.37
2019-05-29T00:49:02.438Z,1017.37
2019-05-29T00:50:02.744Z,1017.29
2019-05-29T00:51:01.835Z,1017.29
2019-05-29T00:52:02.060Z,1017.29
2019-05-29T00:53:02.286Z,1017.29
2019-05-29T00:54:02.584Z,1017.42
2019-05-29T00:55:01.734Z,1017.42
2019-05-29T00:56:01.986Z,1017.42
2019-05-29T00:57:02.192Z,1017.42
2019-05-29T00:58:02.426Z,1017.39
2019-05-29T00:59:02.586Z,1017.39
2019-05-29T01:00:04.016Z,1017.39
2019-05-29T01:01:01.791Z,1017.39
2019-05-29T01:02:02.040Z,1017.5
2019-05-29T01:03:02.179Z,1017.5
2019-05-29T01:04:02.347Z,1017.5
2019-05-29T01:05:02.206Z,1017.5
2019-05-29T01:06:02.389Z,1017.48
2019-05-29T01:07:02.723Z,1017.48
2019-05-29T01:08:01.843Z,1017.48
2019-05-29T01:09:02.016Z,1017.48
2019-05-29T01:10:02.311Z,1017.51
2019-05-29T01:11:02.469Z,1017.51
2019-05-29T01:12:01.693Z,1017.51
2019-05-29T01:13:01.971Z,1017.51
2019-05-29T01:14:02.100Z,1017.59
2019-05-29T01:15:02.368Z,1017.59
2019-05-29T01:16:02.554Z,1017.59
2019-05-29T01:17:01.997Z,1017.59
2019-05-29T01:18:01.982Z,1017.5
2019-05-29T01:19:02.234Z,1017.5
2019-05-29T01:20:02.520Z,1017.5
2019-05-29T01:21:01.774Z,1017.5
2019-05-29T01:22:02.068Z,1017.51
2019-05-29T01:23:02.238Z,1017.51
2019-05-29T01:24:02.393Z,1017.51
2019-05-29T01:25:02.650Z,1017.51
2019-05-29T01:26:01.919Z,1017.45
2019-05-29T01:27:02.414Z,1017.45
2019-05-29T01:28:02.363Z,1017.45
2019-05-29T01:29:02.632Z,1017.45
2019-05-29T01:30:01.835Z,1017.53
2019-05-29T01:31:02.087Z,1017.53
2019-05-29T01:32:02.389Z,1017.53
2019-05-29T01:33:02.537Z,1017.53
2019-05-29T01:34:01.703Z,1017.54
2019-05-29T01:35:01.957Z,1017.54
2019-05-29T01:36:02.207Z,1017.54
2019-05-29T01:37:02.415Z,1017.54
2019-05-29T01:38:02.664Z,1017.57
2019-05-29T01:39:01.924Z,1017.57
2019-05-29T01:40:24.678Z,1017.57
2019-05-29T01:41:02.081Z,1017.57
2019-05-29T01:42:02.245Z,1017.54
2019-05-29T01:43:02.562Z,1017.54
2019-05-29T01:44:01.700Z,1017.54
2019-05-29T01:45:08.773Z,1017.54
2019-05-29T01:46:02.250Z,1017.4
2019-05-29T01:47:02.529Z,1017.4
2019-05-29T01:48:01.814Z,1017.4
2019-05-29T01:49:01.968Z,1017.4
2019-05-29T01:50:02.264Z,1017.48
2019-05-29T01:51:02.454Z,1017.48
2019-05-29T01:52:01.675Z,1017.48
2019-05-29T01:53:01.937Z,1017.48
2019-05-29T01:54:02.197Z,1017.51
2019-05-29T01:55:02.359Z,1017.51
2019-05-29T01:56:02.576Z,1017.51
2019-05-29T01:57:01.805Z,1017.51
2019-05-29T01:58:02.086Z,1017.65
2019-05-29T01:59:02.196Z,1017.65
2019-05-29T02:00:04.389Z,1017.65
2019-05-29T02:01:02.218Z,1017.55
2019-05-29T02:02:02.373Z,1017.55
2019-05-29T02:03:02.606Z,1017.55
2019-05-29T02:04:01.773Z,1017.55
2019-05-29T02:05:02.342Z,1017.53
2019-05-29T02:06:02.339Z,1017.53
2019-05-29T02:07:02.500Z,1017.53
2019-05-29T02:08:01.749Z,1017.53
2019-05-29T02:09:02.039Z,1017.53
2019-05-29T02:10:02.301Z,1017.53
2019-05-29T02:11:02.543Z,1017.53
2019-05-29T02:12:01.724Z,1017.53
2019-05-29T02:13:01.976Z,1017.46
2019-05-29T02:14:01.700Z,1017.46
2019-05-29T02:15:01.999Z,1017.46
2019-05-29T02:16:02.177Z,1017.46
2019-05-29T02:17:02.415Z,1017.61
2019-05-29T02:18:01.689Z,1017.61
2019-05-29T02:19:02.018Z,1017.61
2019-05-29T02:20:02.223Z,1017.61
2019-05-29T02:21:02.437Z,1017.61
2019-05-29T02:22:01.622Z,1017.61
2019-05-29T02:23:01.907Z,1017.61
2019-05-29T02:24:02.200Z,1017.61
2019-05-29T02:25:02.405Z,1017.54
2019-05-29T02:26:02.661Z,1017.54
2019-05-29T02:27:01.759Z,1017.54
2019-05-29T02:28:02.041Z,1017.54
2019-05-29T02:29:02.216Z,1017.52
2019-05-29T02:30:02.584Z,1017.52
2019-05-29T02:31:01.727Z,1017.52
2019-05-29T02:32:01.925Z,1017.52
2019-05-29T02:33:02.143Z,1017.57
2019-05-29T02:34:02.400Z,1017.57
2019-05-29T02:35:01.764Z,1017.57
2019-05-29T02:36:02.060Z,1017.57
2019-05-29T02:37:02.330Z,1017.72
2019-05-29T02:38:02.482Z,1017.72
2019-05-29T02:39:02.622Z,1017.72
2019-05-29T02:40:01.911Z,1017.72
2019-05-29T02:41:02.212Z,1017.81
2019-05-29T02:42:02.361Z,1017.81
2019-05-29T02:43:02.622Z,1017.81
2019-05-29T02:44:01.773Z,1017.81
2019-05-29T02:45:02.110Z,1017.71
2019-05-29T02:46:02.229Z,1017.71
2019-05-29T02:47:02.448Z,1017.71
2019-05-29T02:48:01.701Z,1017.71
2019-05-29T02:49:01.850Z,1017.74
2019-05-29T02:50:02.636Z,1017.74
2019-05-29T02:51:01.880Z,1017.74
2019-05-29T02:52:02.054Z,1017.74
2019-05-29T02:53:02.353Z,1017.94
2019-05-29T02:54:02.487Z,1017.94
2019-05-29T02:55:01.826Z,1017.94
2019-05-29T02:56:02.006Z,1017.94
2019-05-29T02:57:02.242Z,1017.82
2019-05-29T02:58:02.456Z,1017.82
2019-05-29T02:59:01.705Z,1017.82
2019-05-29T03:00:01.929Z,1017.82
2019-05-29T03:01:02.502Z,1017.94
2019-05-29T03:02:01.734Z,1017.94
2019-05-29T03:03:01.876Z,1017.94
2019-05-29T03:04:02.171Z,1017.94
2019-05-29T03:05:02.339Z,1018
2019-05-29T03:06:02.613Z,1018
2019-05-29T03:07:01.792Z,1018
2019-05-29T03:08:02.011Z,1018
2019-05-29T03:09:02.350Z,1018.22
2019-05-29T03:10:02.548Z,1018.22
2019-05-29T03:11:01.714Z,1018.22
2019-05-29T03:12:02.028Z,1018.22
2019-05-29T03:13:02.214Z,1018.26
2019-05-29T03:14:02.506Z,1018.26
2019-05-29T03:15:01.766Z,1018.26
2019-05-29T03:16:12.892Z,1018.26
2019-05-29T03:17:02.090Z,1018.29
2019-05-29T03:18:02.325Z,1018.29
2019-05-29T03:19:02.576Z,1018.29
2019-05-29T03:20:01.790Z,1018.29
2019-05-29T03:21:02.566Z,1018.16
2019-05-29T03:22:01.809Z,1018.16
2019-05-29T03:23:02.011Z,1018.16
2019-05-29T03:24:02.349Z,1018.16
2019-05-29T03:25:02.552Z,1018.33
2019-05-29T03:26:01.760Z,1018.33
2019-05-29T03:27:02.023Z,1018.33
2019-05-29T03:28:02.307Z,1018.33
2019-05-29T03:29:02.563Z,1018.32
2019-05-29T03:30:01.802Z,1018.32
2019-05-29T03:31:01.995Z,1018.32
2019-05-29T03:32:02.162Z,1018.32
2019-05-29T03:33:02.405Z,1018.49
2019-05-29T03:34:02.699Z,1018.49
2019-05-29T03:35:01.874Z,1018.49
2019-05-29T03:36:02.671Z,1018.49
2019-05-29T03:37:01.855Z,1018.36
2019-05-29T03:38:02.082Z,1018.36
2019-05-29T03:39:02.310Z,1018.36
2019-05-29T03:40:02.659Z,1018.36
2019-05-29T03:41:01.769Z,1018.32
2019-05-29T03:42:01.965Z,1018.32
2019-05-29T03:43:01.675Z,1018.32
2019-05-29T03:44:01.949Z,1018.32
2019-05-29T03:45:01.811Z,1018.45
2019-05-29T03:46:02.718Z,1018.45
2019-05-29T03:47:01.812Z,1018.45
2019-05-29T03:48:02.042Z,1018.45
2019-05-29T03:49:02.231Z,1018.5
2019-05-29T03:50:02.472Z,1018.5
2019-05-29T03:51:01.798Z,1018.5
2019-05-29T03:52:01.978Z,1018.54
2019-05-29T03:53:02.205Z,1018.54
2019-05-29T03:54:02.406Z,1018.54
2019-05-29T03:55:02.678Z,1018.54
2019-05-29T03:56:01.786Z,1018.44
2019-05-29T03:57:02.140Z,1018.44
2019-05-29T03:58:01.973Z,1018.44
2019-05-29T03:59:01.896Z,1018.44
2019-05-29T04:00:04.119Z,1018.63
2019-05-29T04:01:02.097Z,1018.63
2019-05-29T04:02:02.303Z,1018.63
2019-05-29T04:03:02.501Z,1018.63
2019-05-29T04:04:01.641Z,1018.66
2019-05-29T04:05:01.953Z,1018.66
2019-05-29T04:06:02.147Z,1018.66
2019-05-29T04:07:02.380Z,1018.66
2019-05-29T04:08:02.562Z,1018.6
2019-05-29T04:09:01.794Z,1018.6
2019-05-29T04:10:01.987Z,1018.6
2019-05-29T04:11:02.131Z,1018.6
2019-05-29T04:12:02.462Z,1018.76
2019-05-29T04:13:01.674Z,1018.76
2019-05-29T04:14:01.927Z,1018.76
2019-05-29T04:15:02.286Z,1018.76
2019-05-29T04:16:02.422Z,1018.89
2019-05-29T04:17:01.758Z,1018.89
2019-05-29T04:18:01.907Z,1018.89
2019-05-29T04:19:02.250Z,1018.89
2019-05-29T04:20:02.426Z,1018.87
2019-05-29T04:21:01.642Z,1018.87
2019-05-29T04:22:01.879Z,1018.87
2019-05-29T04:23:02.048Z,1018.87
2019-05-29T04:24:02.374Z,1018.91
2019-05-29T04:25:02.668Z,1018.91
2019-05-29T04:26:01.861Z,1018.91
2019-05-29T04:27:02.123Z,1018.91
2019-05-29T04:28:02.330Z,1018.91
2019-05-29T04:29:01.806Z,1018.91
2019-05-29T04:30:02.027Z,1018.91
2019-05-29T04:31:02.280Z,1018.91
2019-05-29T04:32:02.582Z,1018.9
2019-05-29T04:33:01.761Z,1018.9
2019-05-29T04:34:01.986Z,1018.9
2019-05-29T04:35:02.174Z,1018.9
2019-05-29T04:36:02.359Z,1018.96
2019-05-29T04:37:06.532Z,1018.96
2019-05-29T04:38:01.797Z,1018.96
2019-05-29T04:39:02.164Z,1018.96
2019-05-29T04:40:02.348Z,1018.95
2019-05-29T04:41:02.525Z,1018.95
2019-05-29T04:42:01.812Z,1018.95
2019-05-29T04:43:01.924Z,1018.95
2019-05-29T04:44:02.138Z,1019.14
2019-05-29T04:45:02.453Z,1019.14
2019-05-29T04:46:01.666Z,1019.14
2019-05-29T04:47:12.608Z,1019.14
2019-05-29T04:48:02.159Z,1019.04
2019-05-29T04:49:02.300Z,1019.04
2019-05-29T04:50:02.615Z,1019.04
2019-05-29T04:51:01.860Z,1019.04
2019-05-29T04:52:01.803Z,1019.06
2019-05-29T04:53:02.069Z,1019.06
2019-05-29T04:54:02.162Z,1019.06
2019-05-29T04:55:02.454Z,1019.06
2019-05-29T04:56:01.671Z,1019.19
2019-05-29T04:57:01.928Z,1019.19
2019-05-29T04:58:02.259Z,1019.19
2019-05-29T04:59:01.678Z,1019.19
2019-05-29T05:00:03.923Z,1019.23
2019-05-29T05:01:01.695Z,1019.23
2019-05-29T05:02:01.924Z,1019.23
2019-05-29T05:03:02.191Z,1019.23
2019-05-29T05:04:02.411Z,1019.33
2019-05-29T05:05:02.628Z,1019.33
2019-05-29T05:06:01.859Z,1019.33
2019-05-29T05:07:02.016Z,1019.33
2019-05-29T05:08:02.275Z,1019.41
2019-05-29T05:09:02.488Z,1019.41
2019-05-29T05:10:01.682Z,1019.41
2019-05-29T05:11:01.886Z,1019.41
2019-05-29T05:12:02.086Z,1019.4
2019-05-29T05:13:02.352Z,1019.4
2019-05-29T05:14:02.616Z,1019.4
2019-05-29T05:15:01.855Z,1019.4
2019-05-29T05:16:02.046Z,1019.42
2019-05-29T05:17:02.252Z,1019.42
2019-05-29T05:18:02.567Z,1019.42
2019-05-29T05:19:01.818Z,1019.42
2019-05-29T05:20:02.075Z,1019.59
2019-05-29T05:21:02.183Z,1019.59
2019-05-29T05:22:02.454Z,1019.59
2019-05-29T05:23:01.677Z,1019.59
2019-05-29T05:24:01.999Z,1019.43
2019-05-29T05:25:02.205Z,1019.43
2019-05-29T05:26:02.387Z,1019.43
2019-05-29T05:27:02.626Z,1019.43
2019-05-29T05:28:01.799Z,1019.67
2019-05-29T05:29:02.037Z,1019.67
2019-05-29T05:30:02.301Z,1019.67
2019-05-29T05:31:02.545Z,1019.65
2019-05-29T05:32:01.808Z,1019.65
2019-05-29T05:33:01.958Z,1019.65
2019-05-29T05:34:01.910Z,1019.65
2019-05-29T05:35:02.156Z,1019.62
2019-05-29T05:36:02.333Z,1019.62
2019-05-29T05:37:02.530Z,1019.62
2019-05-29T05:38:01.847Z,1019.62
2019-05-29T05:39:02.058Z,1019.73
2019-05-29T05:40:02.401Z,1019.73
2019-05-29T05:41:02.560Z,1019.73
2019-05-29T05:42:01.856Z,1019.73
2019-05-29T05:43:02.628Z,1019.78
2019-05-29T05:44:01.874Z,1019.78
2019-05-29T05:45:02.091Z,1019.78
2019-05-29T05:46:02.250Z,1019.78
2019-05-29T05:47:02.389Z,1019.85
2019-05-29T05:48:01.695Z,1019.85
2019-05-29T05:49:01.959Z,1019.85
2019-05-29T05:50:02.513Z,1019.85
2019-05-29T05:51:02.320Z,1019.86
2019-05-29T05:52:02.506Z,1019.86
2019-05-29T05:53:01.756Z,1019.86
2019-05-29T05:54:02.018Z,1019.86
2019-05-29T05:55:02.241Z,1019.84
2019-05-29T05:56:02.427Z,1019.84
2019-05-29T05:57:01.638Z,1019.84
2019-05-29T05:58:01.869Z,1019.84
2019-05-29T05:59:02.154Z,1019.97
2019-05-29T06:00:03.380Z,1019.97
2019-05-29T06:01:02.224Z,1019.97
2019-05-29T06:02:02.548Z,1019.97
2019-05-29T06:03:01.704Z,1019.95
2019-05-29T06:04:01.924Z,1019.95
2019-05-29T06:05:02.204Z,1019.95
2019-05-29T06:06:02.312Z,1019.95
2019-05-29T06:07:02.566Z,1020.05
2019-05-29T06:08:01.870Z,1020.05
2019-05-29T06:09:01.990Z,1020.05
2019-05-29T06:10:02.297Z,1020.05
2019-05-29T06:11:02.493Z,1020.01
2019-05-29T06:12:01.712Z,1020.01
2019-05-29T06:13:02.017Z,1020.01
2019-05-29T06:14:02.234Z,1020.01
2019-05-29T06:15:02.510Z,1020.01
2019-05-29T06:16:01.793Z,1020.01
2019-05-29T06:17:02.015Z,1020.01
2019-05-29T06:18:21.961Z,1020.01
2019-05-29T06:19:02.425Z,1020.03
2019-05-29T06:20:01.761Z,1020.03
2019-05-29T06:21:02.126Z,1020.03
2019-05-29T06:22:02.132Z,1020.03
2019-05-29T06:23:02.340Z,1019.98
2019-05-29T06:24:03.262Z,1019.98
2019-05-29T06:25:01.839Z,1019.98
2019-05-29T06:26:01.962Z,1019.98
2019-05-29T06:27:02.259Z,1020.1
2019-05-29T06:28:02.508Z,1020.1
2019-05-29T06:29:01.733Z,1020.1
2019-05-29T06:30:03.626Z,1020.1
2019-05-29T06:31:02.182Z,1020.1
2019-05-29T06:32:02.418Z,1020.1
2019-05-29T06:33:01.708Z,1020.1
2019-05-29T06:34:02.017Z,1020.1
2019-05-29T06:35:02.323Z,1020.11
2019-05-29T06:36:02.453Z,1020.11
2019-05-29T06:37:02.591Z,1020.11
2019-05-29T06:38:01.758Z,1020.11
2019-05-29T06:39:02.020Z,1020.13
2019-05-29T06:40:02.317Z,1020.13
2019-05-29T06:41:02.464Z,1020.13
2019-05-29T06:42:02.594Z,1020.13
2019-05-29T06:43:02.014Z,1020.07
2019-05-29T06:44:02.158Z,1020.07
2019-05-29T06:45:04.013Z,1020.07
2019-05-29T06:46:02.438Z,1020.07
2019-05-29T06:47:02.673Z,1020.13
2019-05-29T06:48:01.960Z,1020.13
2019-05-29T06:49:02.347Z,1020.13
2019-05-29T06:50:01.952Z,1020.13
2019-05-29T06:51:02.196Z,1020.15
2019-05-29T06:52:02.452Z,1020.15
2019-05-29T06:53:02.752Z,1020.15
2019-05-29T06:54:01.824Z,1020.15
2019-05-29T06:55:02.134Z,1020.1
2019-05-29T06:56:03.832Z,1020.1
2019-05-29T06:57:02.462Z,1020.1
2019-05-29T06:58:02.026Z,1020.1
2019-05-29T06:59:01.942Z,1020.08
2019-05-29T07:00:03.465Z,1020.08
2019-05-29T07:01:02.282Z,1020.08
2019-05-29T07:02:02.456Z,1020.08
2019-05-29T07:03:01.696Z,1020.27
2019-05-29T07:04:12.901Z,1020.27
2019-05-29T07:05:02.244Z,1020.27
2019-05-29T07:06:02.480Z,1020.27
2019-05-29T07:07:02.553Z,1020.44
2019-05-29T07:08:35.245Z,1020.44
2019-05-29T07:09:02.016Z,1020.44
2019-05-29T07:10:02.404Z,1020.44
2019-05-29T07:11:02.514Z,1020.28
2019-05-29T07:12:01.744Z,1020.28
2019-05-29T07:13:01.904Z,1020.28
2019-05-29T07:14:02.117Z,1020.28
2019-05-29T07:15:02.414Z,1020.36
2019-05-29T07:16:02.599Z,1020.36
2019-05-29T07:17:01.926Z,1020.36
2019-05-29T07:18:02.058Z,1020.43
2019-05-29T07:19:38.916Z,1020.43
2019-05-29T07:20:04.580Z,1020.43
2019-05-29T07:21:01.646Z,1020.43
2019-05-29T07:22:02.013Z,1020.51
2019-05-29T07:23:02.170Z,1020.51
2019-05-29T07:24:02.439Z,1020.51
2019-05-29T07:25:02.654Z,1020.51
2019-05-29T07:26:01.880Z,1020.49
2019-05-29T07:27:02.102Z,1020.49
2019-05-29T07:28:02.104Z,1020.49
2019-05-29T07:29:08.868Z,1020.49
2019-05-29T07:30:02.564Z,1020.62
2019-05-29T07:31:04.308Z,1020.62
2019-05-29T07:32:02.047Z,1020.62
2019-05-29T07:33:02.400Z,1020.62
2019-05-29T07:34:02.399Z,1020.6
2019-05-29T07:35:04.739Z,1020.6
2019-05-29T07:36:01.989Z,1020.6
2019-05-29T07:37:02.335Z,1020.6
2019-05-29T07:38:02.494Z,1020.52
2019-05-29T07:39:04.168Z,1020.52
2019-05-29T07:40:02.044Z,1020.52
2019-05-29T07:41:02.308Z,1020.52
2019-05-29T07:42:02.597Z,1020.59
2019-05-29T07:43:01.833Z,1020.59
2019-05-29T07:44:01.980Z,1020.59
2019-05-29T07:45:02.395Z,1020.59
2019-05-29T07:46:02.570Z,1020.64
2019-05-29T07:47:01.833Z,1020.64
2019-05-29T07:48:02.069Z,1020.64
2019-05-29T07:49:02.285Z,1020.64
2019-05-29T07:50:02.542Z,1020.65
2019-05-29T07:51:07.631Z,1020.65
2019-05-29T07:52:01.925Z,1020.65
2019-05-29T07:53:02.193Z,1020.65
2019-05-29T07:54:02.373Z,1020.59
2019-05-29T07:55:02.670Z,1020.59
2019-05-29T07:56:01.928Z,1020.59
2019-05-29T07:57:02.094Z,1020.59
2019-05-29T07:58:02.358Z,1020.7
2019-05-29T07:59:04.064Z,1020.7
2019-05-29T08:00:04.242Z,1020.7
2019-05-29T08:01:14.205Z,1020.7
2019-05-29T08:02:02.299Z,1020.58
2019-05-29T08:03:02.498Z,1020.58
2019-05-29T08:04:01.779Z,1020.58
2019-05-29T08:05:02.333Z,1020.58
2019-05-29T08:06:02.791Z,1020.59
2019-05-29T08:07:02.358Z,1020.59
2019-05-29T08:08:02.543Z,1020.59
2019-05-29T08:09:01.855Z,1020.59
2019-05-29T08:10:01.994Z,1020.27
2019-05-29T08:11:02.175Z,1020.27
2019-05-29T08:12:02.415Z,1020.27
2019-05-29T08:13:02.673Z,1020.27
2019-05-29T08:14:01.890Z,1020.5
2019-05-29T08:15:02.088Z,1020.5
2019-05-29T08:16:03.732Z,1020.5
2019-05-29T08:17:02.495Z,1020.5
2019-05-29T08:18:02.128Z,1020.66
2019-05-29T08:19:02.421Z,1020.66
2019-05-29T08:20:07.970Z,1020.66
2019-05-29T08:21:01.864Z,1020.66
2019-05-29T08:22:02.068Z,1020.57
2019-05-29T08:23:02.187Z,1020.57
2019-05-29T08:24:02.555Z,1020.57
2019-05-29T08:25:01.719Z,1020.57
2019-05-29T08:26:01.924Z,1020.61
2019-05-29T08:27:02.178Z,1020.61
2019-05-29T08:28:02.412Z,1020.61
2019-05-29T08:29:02.670Z,1020.61
2019-05-29T08:30:01.967Z,1020.66
2019-05-29T08:31:02.140Z,1020.66
2019-05-29T08:32:02.379Z,1020.66
2019-05-29T08:33:02.704Z,1020.66
2019-05-29T08:34:01.909Z,1020.63
2019-05-29T08:35:02.231Z,1020.63
2019-05-29T08:36:02.502Z,1020.63
2019-05-29T08:37:07.779Z,1020.63
2019-05-29T08:38:01.878Z,1020.6
2019-05-29T08:39:02.045Z,1020.6
2019-05-29T08:40:02.297Z,1020.6
2019-05-29T08:41:06.201Z,1020.6
2019-05-29T08:42:23.872Z,1020.59
2019-05-29T08:43:01.995Z,1020.59
2019-05-29T08:44:02.140Z,1020.59
2019-05-29T08:45:02.433Z,1020.59
2019-05-29T08:46:01.656Z,1020.56
2019-05-29T08:47:11.225Z,1020.56
2019-05-29T08:48:02.063Z,1020.56
2019-05-29T08:49:02.825Z,1020.56
2019-05-29T08:50:19.327Z,1020.63
2019-05-29T08:51:02.613Z,1020.63
2019-05-29T08:52:12.810Z,1020.63
2019-05-29T08:53:02.957Z,1020.63
2019-05-29T08:54:02.259Z,1020.7
2019-05-29T08:55:02.540Z,1020.7
2019-05-29T08:56:01.727Z,1020.7
2019-05-29T08:57:01.925Z,1020.7
2019-05-29T08:58:02.139Z,1020.57
2019-05-29T08:59:02.371Z,1020.57
2019-05-29T09:00:06.447Z,1020.57
2019-05-29T09:01:02.282Z,1020.86
2019-05-29T09:02:02.613Z,1020.86
2019-05-29T09:03:01.839Z,1020.86
2019-05-29T09:04:02.029Z,1020.86
2019-05-29T09:05:03.438Z,1020.7
2019-05-29T09:06:13.467Z,1020.7
2019-05-29T09:07:01.759Z,1020.7
2019-05-29T09:08:01.989Z,1020.7
2019-05-29T09:09:02.261Z,1020.66
2019-05-29T09:10:02.519Z,1020.66
2019-05-29T09:11:01.742Z,1020.66
2019-05-29T09:12:02.130Z,1020.66
2019-05-29T09:13:05.700Z,1020.7
2019-05-29T09:14:02.459Z,1020.7
2019-05-29T09:15:02.257Z,1020.7
2019-05-29T09:16:02.566Z,1020.7
2019-05-29T09:17:01.924Z,1020.69
2019-05-29T09:18:01.980Z,1020.69
2019-05-29T09:19:02.288Z,1020.69
2019-05-29T09:20:02.517Z,1020.69
2019-05-29T09:21:04.778Z,1020.64
2019-05-29T09:22:02.047Z,1020.64
2019-05-29T09:23:02.218Z,1020.64
2019-05-29T09:24:02.634Z,1020.64
2019-05-29T09:25:01.746Z,1020.73
2019-05-29T09:26:22.510Z,1020.73
2019-05-29T09:27:02.178Z,1020.73
2019-05-29T09:28:02.403Z,1020.73
2019-05-29T09:29:02.635Z,1020.84
2019-05-29T09:30:01.988Z,1020.84
2019-05-29T09:31:02.059Z,1020.84
2019-05-29T09:32:02.255Z,1020.84
2019-05-29T09:33:02.627Z,1020.72
2019-05-29T09:34:01.880Z,1020.72
2019-05-29T09:35:02.090Z,1020.72
2019-05-29T09:36:02.252Z,1020.72
2019-05-29T09:37:02.499Z,1020.7
2019-05-29T09:38:02.614Z,1020.7
2019-05-29T09:39:01.861Z,1020.7
2019-05-29T09:40:02.160Z,1020.7
2019-05-29T09:41:02.316Z,1020.74
2019-05-29T09:42:02.557Z,1020.74
2019-05-29T09:43:01.795Z,1020.74
2019-05-29T09:44:01.965Z,1020.74
2019-05-29T09:45:02.275Z,1020.66
2019-05-29T09:46:02.772Z,1020.66
2019-05-29T09:47:02.572Z,1020.66
2019-05-29T09:48:01.941Z,1020.66
2019-05-29T09:49:02.291Z,1020.73
2019-05-29T09:50:02.293Z,1020.73
2019-05-29T09:51:22.013Z,1020.73
2019-05-29T09:52:02.573Z,1020.73
2019-05-29T09:53:04.282Z,1020.67
2019-05-29T09:54:03.806Z,1020.67
2019-05-29T09:55:02.885Z,1020.67
2019-05-29T09:56:03.374Z,1020.67
2019-05-29T09:57:03.123Z,1020.63
2019-05-29T09:58:03.050Z,1020.63
2019-05-29T09:59:04.126Z,1020.63
2019-05-29T10:00:04.608Z,1020.63
2019-05-29T10:01:24.970Z,1020.7
2019-05-29T10:02:09.367Z,1020.7
2019-05-29T10:03:04.019Z,1020.7
2019-05-29T10:04:06.455Z,1020.7
2019-05-29T10:05:04.397Z,1020.79
2019-05-29T10:06:01.898Z,1020.79
2019-05-29T10:07:04.888Z,1020.79
2019-05-29T10:08:04.469Z,1020.79
2019-05-29T10:09:04.045Z,1020.66
2019-05-29T10:10:05.328Z,1020.66
2019-05-29T10:11:11.346Z,1020.66
2019-05-29T10:12:07.095Z,1020.66
2019-05-29T10:13:04.546Z,1020.66
2019-05-29T10:14:04.966Z,1020.66
2019-05-29T10:15:04.337Z,1020.66
2019-05-29T10:16:04.609Z,1020.66
2019-05-29T10:17:13.090Z,1020.47
2019-05-29T10:18:08.562Z,1020.47
2019-05-29T10:19:03.406Z,1020.47
2019-05-29T10:20:03.540Z,1020.47
2019-05-29T10:21:03.505Z,1020.6
2019-05-29T10:22:05.669Z,1020.6
2019-05-29T10:23:02.040Z,1020.6
2019-05-29T10:24:04.877Z,1020.6
2019-05-29T10:25:03.572Z,1020.57
2019-05-29T10:26:05.035Z,1020.57
2019-05-29T10:27:05.276Z,1020.57
2019-05-29T10:28:06.395Z,1020.57
2019-05-29T10:29:10.020Z,1020.64
2019-05-29T10:30:01.793Z,1020.64
2019-05-29T10:31:05.344Z,1020.64
2019-05-29T10:32:02.217Z,1020.64
2019-05-29T10:33:02.467Z,1020.63
2019-05-29T10:34:01.754Z,1020.63
2019-05-29T10:35:01.975Z,1020.63
2019-05-29T10:36:04.610Z,1020.63
2019-05-29T10:37:02.361Z,1020.57
2019-05-29T10:38:02.599Z,1020.57
2019-05-29T10:39:01.968Z,1020.57
2019-05-29T10:40:02.098Z,1020.57
2019-05-29T10:41:07.674Z,1020.69
2019-05-29T10:42:02.605Z,1020.69
2019-05-29T10:43:02.000Z,1020.69
2019-05-29T10:44:06.649Z,1020.59
2019-05-29T10:45:02.265Z,1020.59
2019-05-29T10:46:02.548Z,1020.59
2019-05-29T10:47:01.754Z,1020.59
2019-05-29T10:48:01.957Z,1020.63
2019-05-29T10:49:05.236Z,1020.63
2019-05-29T10:50:02.982Z,1020.63
2019-05-29T10:51:02.676Z,1020.63
2019-05-29T10:52:17.552Z,1020.65
2019-05-29T10:53:02.134Z,1020.65
2019-05-29T10:54:02.411Z,1020.65
2019-05-29T10:55:02.600Z,1020.65
2019-05-29T10:56:01.862Z,1020.51
2019-05-29T10:57:02.079Z,1020.51
2019-05-29T10:58:02.370Z,1020.51
2019-05-29T10:59:02.651Z,1020.51
2019-05-29T11:00:03.453Z,1020.53
2019-05-29T11:01:02.755Z,1020.53
2019-05-29T11:02:02.550Z,1020.53
2019-05-29T11:03:01.659Z,1020.53
2019-05-29T11:04:01.884Z,1020.55
2019-05-29T11:05:02.176Z,1020.55
2019-05-29T11:06:02.335Z,1020.55
2019-05-29T11:07:02.506Z,1020.55
2019-05-29T11:08:01.828Z,1020.58
2019-05-29T11:09:02.057Z,1020.58
2019-05-29T11:10:02.267Z,1020.58
2019-05-29T11:11:02.455Z,1020.58
2019-05-29T11:12:01.736Z,1020.53
2019-05-29T11:13:02.509Z,1020.53
2019-05-29T11:14:02.295Z,1020.53
2019-05-29T11:15:22.008Z,1020.53
2019-05-29T11:16:01.745Z,1020.41
2019-05-29T11:17:01.994Z,1020.41
2019-05-29T11:18:02.190Z,1020.41
2019-05-29T11:19:02.395Z,1020.41
2019-05-29T11:20:02.263Z,1020.51
2019-05-29T11:21:01.933Z,1020.51
2019-05-29T11:22:26.781Z,1020.51
2019-05-29T11:23:02.421Z,1020.51
2019-05-29T11:24:01.645Z,1020.44
2019-05-29T11:25:27.419Z,1020.44
2019-05-29T11:26:02.221Z,1020.44
2019-05-29T11:27:02.344Z,1020.44
2019-05-29T11:28:02.605Z,1020.46
2019-05-29T11:29:01.932Z,1020.46
2019-05-29T11:30:02.114Z,1020.46
2019-05-29T11:31:06.740Z,1020.46
2019-05-29T11:32:02.634Z,1020.42
2019-05-29T11:33:01.853Z,1020.42
2019-05-29T11:34:02.062Z,1020.42
2019-05-29T11:35:02.661Z,1020.42
2019-05-29T11:36:13.834Z,1020.46
2019-05-29T11:37:02.814Z,1020.46
2019-05-29T11:38:03.355Z,1020.46
2019-05-29T11:39:06.475Z,1020.46
2019-05-29T11:40:03.659Z,1020.39
2019-05-29T11:41:26.869Z,1020.39
2019-05-29T11:42:03.039Z,1020.39
2019-05-29T11:43:03.619Z,1020.39
2019-05-29T11:44:03.560Z,1020.39
2019-05-29T11:45:04.164Z,1020.39
2019-05-29T11:46:02.386Z,1020.39
2019-05-29T11:47:03.310Z,1020.39
2019-05-29T11:48:05.553Z,1020.48
2019-05-29T11:49:04.069Z,1020.48
2019-05-29T11:50:20.215Z,1020.48
2019-05-29T11:51:02.786Z,1020.48
2019-05-29T11:52:25.155Z,1020.44
2019-05-29T11:53:03.019Z,1020.44
2019-05-29T11:54:02.810Z,1020.44
2019-05-29T11:55:08.521Z,1020.44
2019-05-29T11:56:02.493Z,1020.38
2019-05-29T11:57:03.648Z,1020.38
2019-05-29T11:58:02.435Z,1020.38
2019-05-29T11:59:01.690Z,1020.38
2019-05-29T12:00:20.684Z,1020.32
2019-05-29T12:01:02.191Z,1020.32
2019-05-29T12:02:03.974Z,1020.32
2019-05-29T12:03:02.568Z,1020.32
2019-05-29T12:04:26.380Z,1020.42
2019-05-29T12:05:04.281Z,1020.42
2019-05-29T12:06:03.937Z,1020.42
2019-05-29T12:07:02.381Z,1020.42
2019-05-29T12:08:02.314Z,1020.31